createdAt,value
2023-02-04T00:01:15.236Z,95945.03
2023-02-04T00:04:18.425Z,95967.47
2023-02-04T00:07:20.448Z,95963.66
2023-02-04T00:10:22.770Z,95962.94
2023-02-04T00:13:24.852Z,95969.41
2023-02-04T00:16:26.799Z,95979.31
2023-02-04T00:19:33.036Z,95985.06
2023-02-04T00:22:35.096Z,95962.50
2023-02-04T00:25:38.387Z,95962.31
2023-02-04T00:28:40.672Z,95977.38
2023-02-04T00:31:44.571Z,95977.06
2023-02-04T00:34:50.478Z,95983.94
2023-02-04T00:37:52.565Z,95986.13
2023-02-04T00:40:54.344Z,95982.47
2023-02-04T00:43:58.891Z,95978.22
2023-02-04T00:47:00.713Z,95981.81
2023-02-04T00:50:04.858Z,96001.38
2023-02-04T00:53:07.184Z,95993.81
2023-02-04T00:56:09.337Z,96008.53
2023-02-04T00:59:11.460Z,95999.06
2023-02-04T01:02:17.633Z,95975.66
2023-02-04T01:05:21.563Z,95986.81
2023-02-04T01:08:23.588Z,95995.28
2023-02-04T01:11:25.617Z,96001.72
2023-02-04T01:14:27.668Z,96016.81
2023-02-04T01:17:29.732Z,96020.09
2023-02-04T01:20:33.060Z,96037.41
2023-02-04T01:23:35.756Z,96022.59
2023-02-04T01:26:37.643Z,96018.16
2023-02-04T01:29:39.710Z,96029.53
2023-02-04T01:32:41.623Z,96025.16
2023-02-04T01:35:45.306Z,96031.25
2023-02-04T01:38:48.425Z,96055.91
2023-02-04T01:41:50.576Z,96041.03
2023-02-04T01:44:53.017Z,96053.94
2023-02-04T01:47:54.872Z,96056.00
2023-02-04T01:51:03.565Z,96066.66
2023-02-04T01:54:09.846Z,96070.03
2023-02-04T01:57:15.697Z,96050.53
2023-02-04T02:00:22.437Z,96051.16
2023-02-04T02:03:27.044Z,96058.72
2023-02-04T02:06:31.027Z,96051.00
2023-02-04T02:09:34.334Z,96063.13
2023-02-04T02:12:36.400Z,96052.13
2023-02-04T02:15:39.428Z,96080.84
2023-02-04T02:18:41.885Z,96078.53
2023-02-04T02:21:52.589Z,96076.16
2023-02-04T02:24:57.569Z,96098.94
2023-02-04T02:28:00.616Z,96085.25
2023-02-04T02:31:04.038Z,96084.00
2023-02-04T02:34:06.145Z,96081.50
2023-02-04T02:37:08.414Z,96096.41
2023-02-04T02:40:13.190Z,96112.75
2023-02-04T02:43:17.481Z,96119.53
2023-02-04T02:46:19.798Z,96111.38
2023-02-04T02:49:22.757Z,96151.25
2023-02-04T02:52:24.682Z,96113.72
2023-02-04T02:55:28.596Z,96124.72
2023-02-04T02:58:33.731Z,96125.81
2023-02-04T03:01:38.981Z,96136.50
2023-02-04T03:04:44.590Z,96138.41
2023-02-04T03:07:46.564Z,96140.41
2023-02-04T03:10:50.004Z,96158.34
2023-02-04T03:13:52.919Z,96155.66
2023-02-04T03:16:56.134Z,96163.34
2023-02-04T03:19:59.154Z,96199.00
2023-02-04T03:23:01.521Z,96177.63
2023-02-04T03:26:05.758Z,96175.91
2023-02-04T03:29:09.256Z,96173.56
2023-02-04T03:32:11.201Z,96184.53
2023-02-04T03:35:14.385Z,96191.16
2023-02-04T03:38:16.993Z,96188.63
2023-02-04T03:41:22.010Z,96192.09
2023-02-04T03:44:24.932Z,96173.72
2023-02-04T03:47:26.914Z,96188.03
2023-02-04T03:50:29.306Z,96202.63
2023-02-04T03:53:31.314Z,96201.66
2023-02-04T03:56:34.691Z,96193.34
2023-02-04T03:59:36.453Z,96204.50
2023-02-04T04:02:38.579Z,96188.34
2023-02-04T04:05:41.546Z,96193.19
2023-02-04T04:08:43.670Z,96205.75
2023-02-04T04:11:47.004Z,96218.47
2023-02-04T04:14:50.886Z,96217.03
2023-02-04T04:17:52.882Z,96226.47
2023-02-04T04:20:54.841Z,96219.56
2023-02-04T04:23:58.887Z,96240.44
2023-02-04T04:27:04.669Z,96213.44
2023-02-04T04:30:06.953Z,96238.09
2023-02-04T04:33:09.275Z,96229.59
2023-02-04T04:36:11.355Z,96275.63
2023-02-04T04:39:13.090Z,96241.84
2023-02-04T04:42:16.281Z,96246.56
2023-02-04T04:45:18.089Z,96232.13
2023-02-04T04:48:19.929Z,96240.91
2023-02-04T04:51:21.915Z,96242.34
2023-02-04T04:54:23.988Z,96260.69
2023-02-04T04:57:27.468Z,96243.44
2023-02-04T05:00:29.871Z,96253.31
2023-02-04T05:03:31.808Z,96273.44
2023-02-04T05:06:33.737Z,96269.03
2023-02-04T05:09:36.806Z,96253.03
2023-02-04T05:12:40.471Z,96279.25
2023-02-04T05:15:42.267Z,96280.66
2023-02-04T05:18:44.557Z,96276.91
2023-02-04T05:21:46.704Z,96271.56
2023-02-04T05:24:48.634Z,96271.53
2023-02-04T05:27:51.931Z,96337.66
2023-02-04T05:30:53.860Z,96306.56
2023-02-04T05:33:57.019Z,96290.38
2023-02-04T05:36:58.852Z,96293.53
2023-02-04T05:40:01.590Z,96306.88
2023-02-04T05:43:05.393Z,96313.75
2023-02-04T05:46:07.288Z,96311.72
2023-02-04T05:49:09.120Z,96303.88
2023-02-04T05:52:11.139Z,96318.97
2023-02-04T05:55:13.345Z,96318.78
2023-02-04T05:58:16.532Z,96355.53
2023-02-04T06:01:18.288Z,96327.13
2023-02-04T06:04:21.691Z,96346.91
2023-02-04T06:07:23.959Z,96361.50
2023-02-04T06:10:25.755Z,96356.34
2023-02-04T06:13:28.959Z,96373.72
2023-02-04T06:16:31.041Z,96368.88
2023-02-04T06:19:33.600Z,96376.09
2023-02-04T06:22:35.639Z,96385.00
2023-02-04T06:25:38.952Z,96387.81
2023-02-04T06:28:42.138Z,96418.78
2023-02-04T06:31:44.095Z,96432.53
2023-02-04T06:34:46.283Z,96435.03
2023-02-04T06:37:48.499Z,96451.44
2023-02-04T06:40:50.532Z,96470.00
2023-02-04T06:43:53.660Z,96471.06
2023-02-04T06:46:55.586Z,96477.16
2023-02-04T06:49:58.824Z,96485.50
2023-02-04T06:53:00.668Z,96496.66
2023-02-04T06:56:02.722Z,96495.34
2023-02-04T06:59:07.319Z,96504.16
2023-02-04T07:02:11.169Z,96507.09
2023-02-04T07:05:13.377Z,96518.16
2023-02-04T07:08:15.419Z,96533.28
2023-02-04T07:11:19.012Z,96537.44
2023-02-04T07:14:22.198Z,96536.63
2023-02-04T07:17:23.978Z,96553.69
2023-02-04T07:20:25.800Z,96549.19
2023-02-04T07:23:27.640Z,96558.38
2023-02-04T07:26:29.714Z,96570.69
2023-02-04T07:29:33.124Z,96582.81
2023-02-04T07:32:35.141Z,96592.88
2023-02-04T07:35:36.926Z,96596.25
2023-02-04T07:38:38.887Z,96597.44
2023-02-04T07:41:41.283Z,96605.53
2023-02-04T07:44:44.722Z,96614.59
2023-02-04T07:47:46.632Z,96627.53
2023-02-04T07:50:48.496Z,96622.50
2023-02-04T07:53:50.549Z,96624.88
2023-02-04T07:56:52.289Z,96641.63
2023-02-04T07:59:55.597Z,96643.13
2023-02-04T08:02:58.466Z,96666.03
2023-02-04T08:06:00.404Z,96662.16
2023-02-04T08:09:06.100Z,96667.19
2023-02-04T08:12:08.042Z,96678.66
2023-02-04T08:15:11.369Z,96674.41
2023-02-04T08:18:13.411Z,96693.44
2023-02-04T08:21:15.654Z,96703.44
2023-02-04T08:24:20.635Z,96710.72
2023-02-04T08:27:22.650Z,96704.69
2023-02-04T08:30:26.114Z,96701.38
2023-02-04T08:33:28.125Z,96712.63
2023-02-04T08:36:30.362Z,96719.59
2023-02-04T08:39:32.214Z,96728.03
2023-02-04T08:42:35.959Z,96722.00
2023-02-04T08:45:39.348Z,96743.50
2023-02-04T08:48:41.335Z,96734.63
2023-02-04T08:51:44.393Z,96732.94
2023-02-04T08:54:46.486Z,96749.13
2023-02-04T08:57:50.383Z,96737.63
2023-02-04T09:00:55.723Z,96744.81
2023-02-04T09:03:57.568Z,96730.28
2023-02-04T09:06:59.347Z,96744.31
2023-02-04T09:10:01.228Z,96753.38
2023-02-04T09:13:03.005Z,96751.31
2023-02-04T09:16:06.932Z,96762.38
2023-02-04T09:19:08.766Z,96765.94
2023-02-04T09:22:10.887Z,96766.72
2023-02-04T09:25:12.651Z,96769.13
2023-02-04T09:28:16.685Z,96773.84
2023-02-04T09:31:22.138Z,96768.63
2023-02-04T09:34:25.869Z,96779.97
2023-02-04T09:37:27.708Z,96787.84
2023-02-04T09:40:33.376Z,96794.09
2023-02-04T09:43:40.473Z,96807.41
2023-02-04T09:46:47.273Z,96810.28
2023-02-04T09:49:49.230Z,96819.31
2023-02-04T09:52:53.830Z,96826.03
2023-02-04T09:55:56.063Z,96844.13
2023-02-04T09:58:58.264Z,96849.63
2023-02-04T10:02:05.697Z,96852.56
2023-02-04T10:05:14.698Z,96855.16
2023-02-04T10:08:18.943Z,96864.66
2023-02-04T10:11:22.690Z,96866.44
2023-02-04T10:14:25.478Z,96866.81
2023-02-04T10:17:30.283Z,96874.13
2023-02-04T10:20:32.491Z,96868.91
2023-02-04T10:23:34.581Z,96868.94
2023-02-04T10:26:36.600Z,96872.34
2023-02-04T10:29:38.635Z,96861.47
2023-02-04T10:32:42.243Z,96872.66
2023-02-04T10:35:46.273Z,96873.66
2023-02-04T10:39:00.420Z,96873.38
2023-02-04T10:42:02.908Z,96880.47
2023-02-04T10:45:06.169Z,96872.06
2023-02-04T10:48:16.411Z,96874.44
2023-02-04T10:51:18.179Z,96872.66
2023-02-04T10:54:25.060Z,96878.56
2023-02-04T10:57:29.892Z,96883.72
2023-02-04T11:00:37.036Z,96885.03
2023-02-04T11:03:41.840Z,96881.66
2023-02-04T11:06:43.705Z,96892.53
2023-02-04T11:09:46.075Z,96892.72
2023-02-04T11:13:01.340Z,96899.53
2023-02-04T11:16:13.085Z,96898.25
2023-02-04T11:19:30.245Z,96894.78
2023-02-04T11:22:43.139Z,96893.47
2023-02-04T11:25:44.948Z,96887.78
2023-02-04T11:28:50.183Z,96883.78
2023-02-04T11:32:00.760Z,96895.34
2023-02-04T11:35:25.695Z,96885.38
2023-02-04T11:38:30.575Z,96892.69
2023-02-04T11:41:32.564Z,96892.75
2023-02-04T11:44:34.561Z,96891.09
2023-02-04T11:47:36.866Z,96885.19
2023-02-04T11:50:40.435Z,96890.63
2023-02-04T11:53:42.992Z,96892.06
2023-02-04T11:56:45.500Z,96876.31
2023-02-04T11:59:47.450Z,96883.00
2023-02-04T12:02:51.175Z,96877.19
2023-02-04T12:05:54.422Z,96882.34
2023-02-04T12:09:05.597Z,96886.88
2023-02-04T12:12:07.352Z,96881.03
2023-02-04T12:15:15.889Z,96875.69
2023-02-04T12:18:17.918Z,96879.38
2023-02-04T12:21:21.089Z,96866.41
2023-02-04T12:24:24.154Z,96873.91
2023-02-04T12:27:25.925Z,96877.19
2023-02-04T12:30:27.896Z,96885.19
2023-02-04T12:33:29.884Z,96875.38
2023-02-04T12:36:33.034Z,96880.03
2023-02-04T12:39:34.846Z,96883.59
2023-02-04T12:42:36.642Z,96876.22
2023-02-04T12:45:39.751Z,96876.44
2023-02-04T12:48:41.550Z,96887.63
2023-02-04T12:51:44.844Z,96879.53
2023-02-04T12:54:47.704Z,96892.50
2023-02-04T12:57:49.724Z,96891.66
2023-02-04T13:00:51.563Z,96895.22
2023-02-04T13:03:53.637Z,96891.72
2023-02-04T13:06:57.528Z,96896.53
2023-02-04T13:09:59.679Z,96897.00
2023-02-04T13:13:03.382Z,96903.34
2023-02-04T13:16:06.637Z,96892.41
2023-02-04T13:19:08.722Z,96901.09
2023-02-04T13:22:11.886Z,96905.34
2023-02-04T13:25:13.719Z,96913.34
2023-02-04T13:28:15.579Z,96922.13
2023-02-04T13:31:18.040Z,96923.91
2023-02-04T13:34:20.893Z,96931.88
2023-02-04T13:37:24.288Z,96936.41
2023-02-04T13:40:26.048Z,96935.75
2023-02-04T13:43:28.979Z,96942.69
2023-02-04T13:46:31.003Z,96948.38
2023-02-04T13:49:33.015Z,96949.91
2023-02-04T13:52:36.288Z,96952.66
2023-02-04T13:55:38.134Z,96947.72
2023-02-04T13:58:40.013Z,96950.47
2023-02-04T14:01:41.835Z,96946.63
2023-02-04T14:04:43.658Z,96954.53
2023-02-04T14:07:46.885Z,96956.88
2023-02-04T14:10:48.810Z,96962.88
2023-02-04T14:13:50.627Z,96961.34
2023-02-04T14:16:52.821Z,96962.59
2023-02-04T14:19:55.712Z,96962.47
2023-02-04T14:22:59.593Z,96959.91
2023-02-04T14:26:01.694Z,96961.50
2023-02-04T14:29:03.833Z,96971.34
2023-02-04T14:32:06.031Z,96980.22
2023-02-04T14:35:09.372Z,96977.56
2023-02-04T14:38:13.530Z,96977.25
2023-02-04T14:41:15.622Z,96987.28
2023-02-04T14:44:17.825Z,96993.66
2023-02-04T14:47:19.653Z,96992.63
2023-02-04T14:50:21.704Z,96991.47
2023-02-04T14:53:25.270Z,96985.72
2023-02-04T14:56:28.304Z,96992.16
2023-02-04T14:59:30.678Z,97005.69
2023-02-04T15:02:35.253Z,97012.47
2023-02-04T15:05:37.048Z,97014.13
2023-02-04T15:08:40.248Z,97009.41
2023-02-04T15:11:45.919Z,97011.81
2023-02-04T15:14:48.110Z,97015.06
2023-02-04T15:17:49.996Z,97011.75
2023-02-04T15:20:52.337Z,97012.16
2023-02-04T15:23:56.742Z,97008.84
2023-02-04T15:26:59.470Z,97016.00
2023-02-04T15:30:01.529Z,97027.13
2023-02-04T15:33:10.450Z,97025.91
2023-02-04T15:36:12.517Z,97023.09
2023-02-04T15:39:15.975Z,97033.69
2023-02-04T15:42:18.161Z,97036.25
2023-02-04T15:45:20.434Z,97047.63
2023-02-04T15:48:22.445Z,97043.22
2023-02-04T15:51:24.488Z,97051.38
2023-02-04T15:54:28.817Z,97051.53
2023-02-04T15:57:30.851Z,97051.63
2023-02-04T16:00:33.282Z,97052.19
2023-02-04T16:03:35.728Z,97058.53
2023-02-04T16:06:41.287Z,97062.72
2023-02-04T16:09:46.499Z,97072.94
2023-02-04T16:12:49.063Z,97073.25
2023-02-04T16:15:50.878Z,97077.28
2023-02-04T16:18:52.997Z,97079.59
2023-02-04T16:21:54.917Z,97080.59
2023-02-04T16:24:58.732Z,97092.31
2023-02-04T16:28:01.392Z,97092.03
2023-02-04T16:31:04.854Z,97100.06
2023-02-04T16:34:06.918Z,97102.97
2023-02-04T16:37:09.416Z,97101.91
2023-02-04T16:40:13.629Z,97093.53
2023-02-04T16:43:16.071Z,97103.09
2023-02-04T16:46:18.394Z,97101.94
2023-02-04T16:49:20.594Z,97109.59
2023-02-04T16:52:27.222Z,97114.28
2023-02-04T16:55:31.183Z,97117.38
2023-02-04T16:58:33.329Z,97119.97
2023-02-04T17:01:35.495Z,97128.47
2023-02-04T17:04:37.642Z,97134.38
2023-02-04T17:07:39.443Z,97137.63
2023-02-04T17:10:43.610Z,97138.91
2023-02-04T17:13:45.404Z,97142.09
2023-02-04T17:16:48.986Z,97141.13
2023-02-04T17:19:51.774Z,97146.66
2023-02-04T17:22:54.903Z,97150.47
2023-02-04T17:26:01.917Z,97147.28
2023-02-04T17:29:05.989Z,97142.59
2023-02-04T17:32:07.884Z,97147.50
2023-02-04T17:35:10.878Z,97150.25
2023-02-04T17:38:13.257Z,97156.13
2023-02-04T17:41:18.209Z,97145.25
2023-02-04T17:44:27.941Z,97161.44
2023-02-04T17:47:32.215Z,97166.78
2023-02-04T17:53:41.778Z,97164.63
2023-02-04T17:56:46.175Z,97172.06
2023-02-04T17:59:49.660Z,97176.41
2023-02-04T18:02:53.196Z,97172.91
2023-02-04T18:05:57.247Z,97178.97
2023-02-04T18:09:00.419Z,97181.31
2023-02-04T18:12:13.021Z,97187.53
2023-02-04T18:15:25.190Z,97169.34
2023-02-04T18:18:33.230Z,97178.66
2023-02-04T18:21:37.549Z,97181.91
2023-02-04T18:24:43.204Z,97174.69
2023-02-04T18:27:47.135Z,97173.06
2023-02-04T18:30:56.182Z,97175.19
2023-02-04T18:33:58.540Z,97176.22
2023-02-04T18:37:01.273Z,97175.38
2023-02-04T18:40:23.826Z,97177.88
2023-02-04T18:43:28.678Z,97171.72
2023-02-04T18:46:35.604Z,97182.47
2023-02-04T18:49:40.845Z,97184.06
2023-02-04T18:52:43.867Z,97184.56
2023-02-04T18:55:51.180Z,97188.88
2023-02-04T18:58:57.777Z,97184.88
2023-02-04T19:02:02.021Z,97192.88
2023-02-04T19:05:19.704Z,97193.13
2023-02-04T19:08:27.650Z,97191.56
2023-02-04T19:11:35.552Z,97191.34
2023-02-04T19:14:41.454Z,97195.38
2023-02-04T19:17:44.224Z,97198.34
2023-02-04T19:20:46.643Z,97194.38
2023-02-04T19:23:50.992Z,97189.91
2023-02-04T19:26:57.373Z,97190.41
2023-02-04T19:30:02.496Z,97188.03
2023-02-04T19:33:16.337Z,97188.53
2023-02-04T19:36:35.379Z,97190.72
2023-02-04T19:39:39.433Z,97187.81
2023-02-04T19:42:42.923Z,97191.84
2023-02-04T19:45:47.572Z,97178.00
2023-02-04T19:48:50.613Z,97195.28
2023-02-04T19:51:56.408Z,97188.94
2023-02-04T19:55:17.080Z,97192.66
2023-02-04T19:58:22.696Z,97191.38
2023-02-04T20:01:29.414Z,97197.50
2023-02-04T20:04:36.687Z,97192.19
2023-02-04T20:07:39.174Z,97206.56
2023-02-04T20:10:42.486Z,97203.91
2023-02-04T20:13:50.064Z,97207.16
2023-02-04T20:16:56.574Z,97211.44
2023-02-04T20:20:10.008Z,97208.31
2023-02-04T20:23:26.260Z,97213.38
2023-02-04T20:26:29.291Z,97209.66
2023-02-04T20:29:36.565Z,97215.22
2023-02-04T20:32:42.555Z,97221.56
2023-02-04T20:36:30.631Z,97214.69
2023-02-04T20:39:39.706Z,97221.03
2023-02-04T20:42:45.144Z,97216.78
2023-02-04T20:45:50.931Z,97216.00
2023-02-04T20:48:54.675Z,97223.66
2023-02-04T20:51:59.894Z,97216.53
2023-02-04T20:55:21.614Z,97220.09
2023-02-04T20:58:25.782Z,97217.91
2023-02-04T21:01:34.396Z,97222.22
2023-02-04T21:04:41.288Z,97226.16
2023-02-04T21:07:43.994Z,97225.09
2023-02-04T21:10:47.881Z,97221.13
2023-02-04T21:13:51.708Z,97217.91
2023-02-04T21:16:54.445Z,97219.53
2023-02-04T21:19:58.401Z,97219.81
2023-02-04T21:23:00.931Z,97213.47
2023-02-04T21:26:03.481Z,97218.56
2023-02-04T21:29:07.199Z,97222.28
2023-02-04T21:32:09.992Z,97222.56
2023-02-04T21:35:13.516Z,97223.63
2023-02-04T21:38:15.323Z,97227.84
2023-02-04T21:41:18.230Z,97227.31
2023-02-04T21:44:20.704Z,97233.94
2023-02-04T21:47:22.717Z,97229.97
2023-02-04T21:50:28.977Z,97234.50
2023-02-04T21:53:31.297Z,97230.00
2023-02-04T21:56:34.843Z,97236.38
2023-02-04T21:59:38.707Z,97228.94
2023-02-04T22:02:40.827Z,97230.25
2023-02-04T22:05:45.721Z,97227.34
2023-02-04T22:08:48.571Z,97230.53
2023-02-04T22:11:50.382Z,97224.41
2023-02-04T22:14:52.513Z,97228.97
2023-02-04T22:17:58.165Z,97223.63
2023-02-04T22:21:02.368Z,97225.25
2023-02-04T22:24:05.376Z,97227.38
2023-02-04T22:27:07.189Z,97228.19
2023-02-04T22:30:11.068Z,97232.72
2023-02-04T22:33:14.105Z,97231.91
2023-02-04T22:36:20.521Z,97230.59
2023-02-04T22:39:24.729Z,97239.09
2023-02-04T22:42:26.848Z,97237.75
2023-02-04T22:45:28.824Z,97244.16
2023-02-04T22:48:30.760Z,97246.78
2023-02-04T22:51:34.314Z,97248.13
2023-02-04T22:54:36.104Z,97247.59
2023-02-04T22:57:39.889Z,97256.34
2023-02-04T23:00:42.008Z,97249.41
2023-02-04T23:03:46.468Z,97254.75
2023-02-04T23:06:52.269Z,97247.31
2023-02-04T23:09:55.117Z,97249.91
2023-02-04T23:12:57.000Z,97246.50
2023-02-04T23:16:00.211Z,97251.00
2023-02-04T23:19:02.083Z,97246.78
2023-02-04T23:22:07.894Z,97247.84
2023-02-04T23:25:10.195Z,97257.38
2023-02-04T23:28:14.269Z,97255.53
2023-02-04T23:31:16.106Z,97251.28
2023-02-04T23:34:17.958Z,97247.28
2023-02-04T23:37:21.424Z,97253.94
2023-02-04T23:40:23.450Z,97248.38
2023-02-04T23:43:26.600Z,97253.41
2023-02-04T23:46:28.470Z,97252.63
2023-02-04T23:49:30.507Z,97251.81
2023-02-04T23:52:36.034Z,97242.78
2023-02-04T23:55:37.837Z,97243.59
2023-02-04T23:58:39.836Z,97253.66
